sensor_id;sensor_type;location;lat;lon;timestamp;P1;durP1;ratioP1;P2;durP2;ratioP2
2191;SDS011;1102;49.718;11.902;2023-04-01T00:01:18;2.57;;;1.40;;
2191;SDS011;1102;49.718;11.902;2023-04-01T00:03:46;1.23;;;1.10;;
2191;SDS011;1102;49.718;11.902;2023-04-01T00:06:13;2.37;;;1.30;;
2191;SDS011;1102;49.718;11.902;2023-04-01T00:08:41;2.80;;;0.93;;
2191;SDS011;1102;49.718;11.902;2023-04-01T00:11:08;2.17;;;1.50;;
2191;SDS011;1102;49.718;11.902;2023-04-01T00:13:35;2.20;;;0.90;;
2191;SDS011;1102;49.718;11.902;2023-04-01T00:16:02;1.60;;;1.20;;
2191;SDS011;1102;49.718;11.902;2023-04-01T00:18:45;1.63;;;0.87;;
2191;SDS011;1102;49.718;11.902;2023-04-01T00:21:13;1.40;;;1.03;;
2191;SDS011;1102;49.718;11.902;2023-04-01T00:23:40;6.30;;;1.53;;
2191;SDS011;1102;49.718;11.902;2023-04-01T00:26:07;3.73;;;1.53;;
2191;SDS011;1102;49.718;11.902;2023-04-01T00:28:35;1.80;;;1.00;;
2191;SDS011;1102;49.718;11.902;2023-04-01T00:31:09;4.20;;;1.73;;
2191;SDS011;1102;49.718;11.902;2023-04-01T00:33:37;2.20;;;1.40;;
2191;SDS011;1102;49.718;11.902;2023-04-01T00:36:11;3.17;;;1.20;;
2191;SDS011;1102;49.718;11.902;2023-04-01T00:38:40;1.47;;;1.37;;
2191;SDS011;1102;49.718;11.902;2023-04-01T00:41:09;4.80;;;1.10;;
2191;SDS011;1102;49.718;11.902;2023-04-01T00:43:41;3.43;;;1.20;;
2191;SDS011;1102;49.718;11.902;2023-04-01T00:46:08;3.97;;;1.67;;
2191;SDS011;1102;49.718;11.902;2023-04-01T00:48:36;1.87;;;1.30;;
2191;SDS011;1102;49.718;11.902;2023-04-01T00:51:07;2.20;;;1.03;;
2191;SDS011;1102;49.718;11.902;2023-04-01T00:53:41;1.80;;;0.90;;
2191;SDS011;1102;49.718;11.902;2023-04-01T00:56:18;3.47;;;1.50;;
2191;SDS011;1102;49.718;11.902;2023-04-01T00:58:50;5.33;;;1.33;;
2191;SDS011;1102;49.718;11.902;2023-04-01T01:01:21;5.87;;;1.60;;
2191;SDS011;1102;49.718;11.902;2023-04-01T01:03:51;2.30;;;1.50;;
2191;SDS011;1102;49.718;11.902;2023-04-01T01:11:42;4.40;;;1.90;;
2191;SDS011;1102;49.718;11.902;2023-04-01T01:14:20;1.57;;;1.47;;
2191;SDS011;1102;49.718;11.902;2023-04-01T01:17:35;4.00;;;1.47;;
2191;SDS011;1102;49.718;11.902;2023-04-01T01:28:04;5.43;;;2.10;;
2191;SDS011;1102;49.718;11.902;2023-04-01T01:30:49;3.10;;;1.63;;
2191;SDS011;1102;49.718;11.902;2023-04-01T01:33:39;2.70;;;1.50;;
2191;SDS011;1102;49.718;11.902;2023-04-01T01:36:15;2.30;;;1.20;;
2191;SDS011;1102;49.718;11.902;2023-04-01T01:38:45;2.57;;;1.33;;
2191;SDS011;1102;49.718;11.902;2023-04-01T01:41:14;1.43;;;1.20;;
2191;SDS011;1102;49.718;11.902;2023-04-01T01:43:45;4.73;;;1.87;;
2191;SDS011;1102;49.718;11.902;2023-04-01T01:46:17;1.60;;;1.00;;
2191;SDS011;1102;49.718;11.902;2023-04-01T01:48:47;3.17;;;2.30;;
2191;SDS011;1102;49.718;11.902;2023-04-01T01:51:17;2.00;;;1.10;;
2191;SDS011;1102;49.718;11.902;2023-04-01T01:53:46;2.70;;;1.20;;
2191;SDS011;1102;49.718;11.902;2023-04-01T01:56:14;3.10;;;1.10;;
2191;SDS011;1102;49.718;11.902;2023-04-01T01:58:45;2.93;;;1.23;;
2191;SDS011;1102;49.718;11.902;2023-04-01T02:01:23;3.30;;;2.13;;
2191;SDS011;1102;49.718;11.902;2023-04-01T02:03:53;2.70;;;1.00;;
2191;SDS011;1102;49.718;11.902;2023-04-01T02:06:22;4.50;;;1.40;;
2191;SDS011;1102;49.718;11.902;2023-04-01T02:11:32;4.10;;;1.80;;
2191;SDS011;1102;49.718;11.902;2023-04-01T02:14:13;2.90;;;1.10;;
2191;SDS011;1102;49.718;11.902;2023-04-01T02:19:24;1.00;;;0.90;;
2191;SDS011;1102;49.718;11.902;2023-04-01T02:21:58;3.90;;;1.40;;
2191;SDS011;1102;49.718;11.902;2023-04-01T02:24:28;1.70;;;1.10;;
2191;SDS011;1102;49.718;11.902;2023-04-01T02:26:57;1.90;;;0.90;;
2191;SDS011;1102;49.718;11.902;2023-04-01T02:29:26;3.10;;;1.30;;
2191;SDS011;1102;49.718;11.902;2023-04-01T02:31:53;11.77;;;1.53;;
2191;SDS011;1102;49.718;11.902;2023-04-01T02:34:21;3.83;;;1.20;;
2191;SDS011;1102;49.718;11.902;2023-04-01T02:36:49;3.63;;;1.20;;
2191;SDS011;1102;49.718;11.902;2023-04-01T02:39:17;7.50;;;1.10;;
2191;SDS011;1102;49.718;11.902;2023-04-01T02:41:44;1.67;;;1.50;;
2191;SDS011;1102;49.718;11.902;2023-04-01T02:44:13;3.83;;;1.60;;
2191;SDS011;1102;49.718;11.902;2023-04-01T02:46:41;4.00;;;1.23;;
2191;SDS011;1102;49.718;11.902;2023-04-01T02:49:08;3.97;;;2.90;;
2191;SDS011;1102;49.718;11.902;2023-04-01T02:51:35;1.97;;;1.57;;
2191;SDS011;1102;49.718;11.902;2023-04-01T02:54:02;1.60;;;1.50;;
2191;SDS011;1102;49.718;11.902;2023-04-01T02:56:29;2.13;;;1.20;;
2191;SDS011;1102;49.718;11.902;2023-04-01T02:58:56;2.07;;;1.33;;
2191;SDS011;1102;49.718;11.902;2023-04-01T03:01:23;2.30;;;1.10;;
2191;SDS011;1102;49.718;11.902;2023-04-01T03:03:49;1.13;;;1.03;;
2191;SDS011;1102;49.718;11.902;2023-04-01T03:06:16;6.60;;;1.40;;
2191;SDS011;1102;49.718;11.902;2023-04-01T03:08:44;2.70;;;1.37;;
2191;SDS011;1102;49.718;11.902;2023-04-01T03:11:11;2.67;;;1.23;;
2191;SDS011;1102;49.718;11.902;2023-04-01T03:13:38;3.93;;;1.60;;
2191;SDS011;1102;49.718;11.902;2023-04-01T03:16:05;2.70;;;2.13;;
2191;SDS011;1102;49.718;11.902;2023-04-01T03:18:34;2.67;;;1.00;;
2191;SDS011;1102;49.718;11.902;2023-04-01T03:21:17;9.33;;;1.47;;
2191;SDS011;1102;49.718;11.902;2023-04-01T03:23:45;1.53;;;0.97;;
2191;SDS011;1102;49.718;11.902;2023-04-01T03:26:12;3.40;;;1.00;;
2191;SDS011;1102;49.718;11.902;2023-04-01T03:28:40;3.10;;;1.10;;
2191;SDS011;1102;49.718;11.902;2023-04-01T03:31:07;3.97;;;1.60;;
2191;SDS011;1102;49.718;11.902;2023-04-01T03:33:40;3.10;;;1.20;;
2191;SDS011;1102;49.718;11.902;2023-04-01T03:36:07;2.50;;;1.40;;
2191;SDS011;1102;49.718;11.902;2023-04-01T03:38:34;5.67;;;1.07;;
2191;SDS011;1102;49.718;11.902;2023-04-01T03:41:02;2.03;;;1.27;;
2191;SDS011;1102;49.718;11.902;2023-04-01T03:43:30;4.97;;;1.10;;
2191;SDS011;1102;49.718;11.902;2023-04-01T03:45:57;1.27;;;0.80;;
2191;SDS011;1102;49.718;11.902;2023-04-01T03:48:25;1.60;;;1.50;;
2191;SDS011;1102;49.718;11.902;2023-04-01T03:50:52;5.87;;;1.40;;
2191;SDS011;1102;49.718;11.902;2023-04-01T03:53:19;2.83;;;1.40;;
2191;SDS011;1102;49.718;11.902;2023-04-01T03:55:47;1.10;;;0.90;;
2191;SDS011;1102;49.718;11.902;2023-04-01T03:58:14;4.80;;;1.33;;
2191;SDS011;1102;49.718;11.902;2023-04-01T04:00:41;1.10;;;1.00;;
2191;SDS011;1102;49.718;11.902;2023-04-01T04:03:09;3.13;;;1.23;;
2191;SDS011;1102;49.718;11.902;2023-04-01T04:05:35;5.47;;;1.60;;
2191;SDS011;1102;49.718;11.902;2023-04-01T04:08:03;3.40;;;0.93;;
2191;SDS011;1102;49.718;11.902;2023-04-01T04:10:30;1.73;;;1.10;;
2191;SDS011;1102;49.718;11.902;2023-04-01T04:12:57;3.70;;;1.10;;
2191;SDS011;1102;49.718;11.902;2023-04-01T04:15:27;2.40;;;2.03;;
2191;SDS011;1102;49.718;11.902;2023-04-01T04:17:53;2.80;;;0.97;;
2191;SDS011;1102;49.718;11.902;2023-04-01T04:20:20;2.93;;;1.43;;
2191;SDS011;1102;49.718;11.902;2023-04-01T04:22:47;2.13;;;1.10;;
2191;SDS011;1102;49.718;11.902;2023-04-01T04:25:14;4.10;;;1.50;;
2191;SDS011;1102;49.718;11.902;2023-04-01T04:27:40;8.10;;;1.33;;
2191;SDS011;1102;49.718;11.902;2023-04-01T04:30:10;2.83;;;2.30;;
2191;SDS011;1102;49.718;11.902;2023-04-01T04:32:37;6.27;;;1.07;;
2191;SDS011;1102;49.718;11.902;2023-04-01T04:35:04;1.77;;;1.40;;
2191;SDS011;1102;49.718;11.902;2023-04-01T04:37:33;2.77;;;1.30;;
2191;SDS011;1102;49.718;11.902;2023-04-01T04:40:00;1.53;;;0.97;;
2191;SDS011;1102;49.718;11.902;2023-04-01T04:42:27;1.60;;;1.27;;
2191;SDS011;1102;49.718;11.902;2023-04-01T04:44:59;1.73;;;0.90;;
2191;SDS011;1102;49.718;11.902;2023-04-01T04:47:26;1.27;;;0.90;;
2191;SDS011;1102;49.718;11.902;2023-04-01T04:49:53;1.40;;;1.10;;
2191;SDS011;1102;49.718;11.902;2023-04-01T04:52:20;2.40;;;1.43;;
2191;SDS011;1102;49.718;11.902;2023-04-01T04:54:46;2.83;;;0.90;;
2191;SDS011;1102;49.718;11.902;2023-04-01T04:57:13;2.53;;;0.90;;
2191;SDS011;1102;49.718;11.902;2023-04-01T04:59:47;6.63;;;1.20;;
2191;SDS011;1102;49.718;11.902;2023-04-01T05:02:24;2.00;;;1.20;;
2191;SDS011;1102;49.718;11.902;2023-04-01T05:04:51;2.50;;;1.00;;
2191;SDS011;1102;49.718;11.902;2023-04-01T05:07:18;2.07;;;1.10;;
2191;SDS011;1102;49.718;11.902;2023-04-01T05:09:45;3.73;;;1.10;;
2191;SDS011;1102;49.718;11.902;2023-04-01T05:12:12;1.53;;;1.17;;
2191;SDS011;1102;49.718;11.902;2023-04-01T05:15:00;2.50;;;1.20;;
2191;SDS011;1102;49.718;11.902;2023-04-01T05:17:27;3.90;;;2.07;;
2191;SDS011;1102;49.718;11.902;2023-04-01T05:19:53;2.27;;;1.30;;
2191;SDS011;1102;49.718;11.902;2023-04-01T05:22:20;5.03;;;2.97;;
2191;SDS011;1102;49.718;11.902;2023-04-01T05:24:47;3.53;;;3.23;;
2191;SDS011;1102;49.718;11.902;2023-04-01T05:27:14;20.67;;;14.33;;
2191;SDS011;1102;49.718;11.902;2023-04-01T05:29:41;4.30;;;3.13;;
2191;SDS011;1102;49.718;11.902;2023-04-01T05:32:23;3.73;;;2.93;;
2191;SDS011;1102;49.718;11.902;2023-04-01T05:34:51;4.70;;;2.97;;
2191;SDS011;1102;49.718;11.902;2023-04-01T05:37:18;6.10;;;2.40;;
2191;SDS011;1102;49.718;11.902;2023-04-01T05:39:46;6.83;;;3.37;;
2191;SDS011;1102;49.718;11.902;2023-04-01T05:42:12;8.43;;;3.80;;
2191;SDS011;1102;49.718;11.902;2023-04-01T05:44:40;2.83;;;2.63;;
2191;SDS011;1102;49.718;11.902;2023-04-01T05:47:07;9.50;;;8.60;;
2191;SDS011;1102;49.718;11.902;2023-04-01T05:49:34;6.70;;;3.57;;
2191;SDS011;1102;49.718;11.902;2023-04-01T05:52:02;9.63;;;7.60;;
2191;SDS011;1102;49.718;11.902;2023-04-01T05:54:30;5.47;;;2.80;;
2191;SDS011;1102;49.718;11.902;2023-04-01T05:56:57;9.67;;;4.80;;
2191;SDS011;1102;49.718;11.902;2023-04-01T05:59:23;3.50;;;1.50;;
2191;SDS011;1102;49.718;11.902;2023-04-01T06:01:50;3.43;;;1.60;;
2191;SDS011;1102;49.718;11.902;2023-04-01T06:04:18;1.27;;;1.17;;
2191;SDS011;1102;49.718;11.902;2023-04-01T06:06:46;1.67;;;1.37;;
2191;SDS011;1102;49.718;11.902;2023-04-01T06:14:36;4.03;;;1.40;;
2191;SDS011;1102;49.718;11.902;2023-04-01T06:17:26;4.50;;;3.07;;
2191;SDS011;1102;49.718;11.902;2023-04-01T06:23:24;2.83;;;2.33;;
2191;SDS011;1102;49.718;11.902;2023-04-01T06:29:16;2.40;;;1.50;;
2191;SDS011;1102;49.718;11.902;2023-04-01T06:34:42;3.23;;;1.57;;
2191;SDS011;1102;49.718;11.902;2023-04-01T06:52:40;4.20;;;1.20;;
2191;SDS011;1102;49.718;11.902;2023-04-01T06:55:50;1.30;;;1.13;;
2191;SDS011;1102;49.718;11.902;2023-04-01T07:01:26;2.17;;;1.60;;
2191;SDS011;1102;49.718;11.902;2023-04-01T07:03:59;1.93;;;1.20;;
2191;SDS011;1102;49.718;11.902;2023-04-01T07:07:16;3.07;;;1.67;;
2191;SDS011;1102;49.718;11.902;2023-04-01T07:09:31;1.57;;;1.10;;
2191;SDS011;1102;49.718;11.902;2023-04-01T07:12:40;2.53;;;1.00;;
2191;SDS011;1102;49.718;11.902;2023-04-01T07:15:55;0.97;;;0.87;;
2191;SDS011;1102;49.718;11.902;2023-04-01T07:18:42;1.00;;;0.90;;
2191;SDS011;1102;49.718;11.902;2023-04-01T07:21:26;2.80;;;0.70;;
2191;SDS011;1102;49.718;11.902;2023-04-01T07:24:03;2.07;;;1.00;;
2191;SDS011;1102;49.718;11.902;2023-04-01T07:26:37;1.40;;;0.93;;
2191;SDS011;1102;49.718;11.902;2023-04-01T07:29:10;2.03;;;0.90;;
2191;SDS011;1102;49.718;11.902;2023-04-01T07:34:35;1.53;;;1.00;;
2191;SDS011;1102;49.718;11.902;2023-04-01T07:42:35;2.40;;;1.10;;
2191;SDS011;1102;49.718;11.902;2023-04-01T07:45:16;1.20;;;0.90;;
2191;SDS011;1102;49.718;11.902;2023-04-01T07:50:40;2.70;;;1.67;;
2191;SDS011;1102;49.718;11.902;2023-04-01T07:56:02;1.87;;;1.00;;
2191;SDS011;1102;49.718;11.902;2023-04-01T08:07:25;2.33;;;0.80;;
2191;SDS011;1102;49.718;11.902;2023-04-01T08:16:55;2.20;;;1.00;;
2191;SDS011;1102;49.718;11.902;2023-04-01T08:19:46;2.40;;;1.20;;
2191;SDS011;1102;49.718;11.902;2023-04-01T08:25:00;1.13;;;1.03;;
2191;SDS011;1102;49.718;11.902;2023-04-01T08:27:51;2.53;;;1.40;;
2191;SDS011;1102;49.718;11.902;2023-04-01T08:30:24;2.90;;;1.00;;
2191;SDS011;1102;49.718;11.902;2023-04-01T08:35:24;2.10;;;1.23;;
2191;SDS011;1102;49.718;11.902;2023-04-01T08:38:01;2.57;;;1.80;;
2191;SDS011;1102;49.718;11.902;2023-04-01T08:40:43;5.80;;;1.60;;
2191;SDS011;1102;49.718;11.902;2023-04-01T08:45:56;2.47;;;2.27;;
2191;SDS011;1102;49.718;11.902;2023-04-01T08:48:42;1.60;;;1.50;;
2191;SDS011;1102;49.718;11.902;2023-04-01T08:59:36;3.00;;;1.77;;
2191;SDS011;1102;49.718;11.902;2023-04-01T09:11:08;1.17;;;1.07;;
2191;SDS011;1102;49.718;11.902;2023-04-01T09:17:34;4.10;;;1.00;;
2191;SDS011;1102;49.718;11.902;2023-04-01T09:23:22;23.70;;;16.80;;
2191;SDS011;1102;49.718;11.902;2023-04-01T09:26:08;22.77;;;16.33;;
2191;SDS011;1102;49.718;11.902;2023-04-01T09:34:37;34.23;;;19.83;;
2191;SDS011;1102;49.718;11.902;2023-04-01T09:37:33;15.40;;;8.37;;
2191;SDS011;1102;49.718;11.902;2023-04-01T10:52:18;1.40;;;1.30;;
2191;SDS011;1102;49.718;11.902;2023-04-01T11:08:01;1.53;;;1.43;;
2191;SDS011;1102;49.718;11.902;2023-04-01T11:28:27;1.50;;;1.40;;
2191;SDS011;1102;49.718;11.902;2023-04-01T11:42:37;0.70;;;0.70;;
2191;SDS011;1102;49.718;11.902;2023-04-01T11:45:39;1.43;;;1.10;;
2191;SDS011;1102;49.718;11.902;2023-04-01T11:54:04;0.90;;;0.90;;
2191;SDS011;1102;49.718;11.902;2023-04-01T11:59:59;1.17;;;1.00;;
2191;SDS011;1102;49.718;11.902;2023-04-01T12:03:02;0.90;;;0.90;;
2191;SDS011;1102;49.718;11.902;2023-04-01T12:05:54;1.40;;;0.90;;
2191;SDS011;1102;49.718;11.902;2023-04-01T12:08:31;0.80;;;0.80;;
2191;SDS011;1102;49.718;11.902;2023-04-01T12:16:29;1.40;;;0.70;;
2191;SDS011;1102;49.718;11.902;2023-04-01T12:27:38;2.50;;;0.93;;
2191;SDS011;1102;49.718;11.902;2023-04-01T12:35:37;0.87;;;0.87;;
2191;SDS011;1102;49.718;11.902;2023-04-01T12:38:19;1.10;;;0.80;;
2191;SDS011;1102;49.718;11.902;2023-04-01T12:46:19;1.03;;;0.80;;
2191;SDS011;1102;49.718;11.902;2023-04-01T12:49:14;1.27;;;0.93;;
2191;SDS011;1102;49.718;11.902;2023-04-01T13:00:43;1.00;;;1.00;;
2191;SDS011;1102;49.718;11.902;2023-04-01T13:06:29;1.20;;;1.10;;
2191;SDS011;1102;49.718;11.902;2023-04-01T13:12:02;1.93;;;1.47;;
2191;SDS011;1102;49.718;11.902;2023-04-01T13:28:29;1.60;;;1.50;;
2191;SDS011;1102;49.718;11.902;2023-04-01T13:36:59;3.53;;;2.17;;
2191;SDS011;1102;49.718;11.902;2023-04-01T13:42:28;6.00;;;3.50;;
2191;SDS011;1102;49.718;11.902;2023-04-01T13:45:00;3.13;;;2.70;;
2191;SDS011;1102;49.718;11.902;2023-04-01T13:51:18;1.30;;;1.03;;
2191;SDS011;1102;49.718;11.902;2023-04-01T14:18:16;1.40;;;1.20;;
2191;SDS011;1102;49.718;11.902;2023-04-01T14:23:50;4.13;;;2.60;;
2191;SDS011;1102;49.718;11.902;2023-04-01T14:32:07;1.30;;;1.20;;
2191;SDS011;1102;49.718;11.902;2023-04-01T14:50:43;1.37;;;1.07;;
2191;SDS011;1102;49.718;11.902;2023-04-01T14:53:26;1.47;;;1.23;;
2191;SDS011;1102;49.718;11.902;2023-04-01T14:55:58;2.20;;;2.00;;
2191;SDS011;1102;49.718;11.902;2023-04-01T14:58:49;2.63;;;2.43;;
2191;SDS011;1102;49.718;11.902;2023-04-01T15:03:55;2.37;;;1.83;;
2191;SDS011;1102;49.718;11.902;2023-04-01T15:09:24;5.33;;;3.53;;
2191;SDS011;1102;49.718;11.902;2023-04-01T15:14:53;1.47;;;1.37;;
2191;SDS011;1102;49.718;11.902;2023-04-01T15:30:49;2.80;;;2.60;;
2191;SDS011;1102;49.718;11.902;2023-04-01T15:33:28;2.70;;;1.90;;
2191;SDS011;1102;49.718;11.902;2023-04-01T16:00:29;8.13;;;6.43;;
2191;SDS011;1102;49.718;11.902;2023-04-01T16:08:38;8.00;;;6.07;;
2191;SDS011;1102;49.718;11.902;2023-04-01T16:14:11;1.83;;;1.17;;
2191;SDS011;1102;49.718;11.902;2023-04-01T16:19:41;1.13;;;1.03;;
2191;SDS011;1102;49.718;11.902;2023-04-01T16:22:20;1.20;;;1.13;;
2191;SDS011;1102;49.718;11.902;2023-04-01T16:30:27;1.53;;;1.43;;
2191;SDS011;1102;49.718;11.902;2023-04-01T16:33:01;4.33;;;1.60;;
2191;SDS011;1102;49.718;11.902;2023-04-01T16:35:43;1.70;;;1.60;;
2191;SDS011;1102;49.718;11.902;2023-04-01T16:38:24;1.83;;;1.73;;
2191;SDS011;1102;49.718;11.902;2023-04-01T16:41:14;1.10;;;1.00;;
2191;SDS011;1102;49.718;11.902;2023-04-01T16:54:35;1.70;;;1.40;;
2191;SDS011;1102;49.718;11.902;2023-04-01T16:59:47;0.90;;;0.90;;
2191;SDS011;1102;49.718;11.902;2023-04-01T17:02:23;1.60;;;1.40;;
2191;SDS011;1102;49.718;11.902;2023-04-01T17:05:03;1.30;;;1.20;;
2191;SDS011;1102;49.718;11.902;2023-04-01T17:19:14;2.53;;;2.33;;
2191;SDS011;1102;49.718;11.902;2023-04-01T17:27:15;2.83;;;2.60;;
2191;SDS011;1102;49.718;11.902;2023-04-01T17:32:35;1.30;;;1.20;;
2191;SDS011;1102;49.718;11.902;2023-04-01T17:37:57;1.30;;;1.00;;
2191;SDS011;1102;49.718;11.902;2023-04-01T17:49:39;1.63;;;1.20;;
2191;SDS011;1102;49.718;11.902;2023-04-01T17:52:21;2.30;;;2.10;;
2191;SDS011;1102;49.718;11.902;2023-04-01T17:55:15;4.90;;;1.43;;
2191;SDS011;1102;49.718;11.902;2023-04-01T18:00:33;2.00;;;1.83;;
2191;SDS011;1102;49.718;11.902;2023-04-01T18:09:46;3.43;;;2.70;;
2191;SDS011;1102;49.718;11.902;2023-04-01T18:25:44;2.07;;;1.87;;
2191;SDS011;1102;49.718;11.902;2023-04-01T18:36:16;1.50;;;1.40;;
2191;SDS011;1102;49.718;11.902;2023-04-01T18:39:01;1.73;;;1.60;;
2191;SDS011;1102;49.718;11.902;2023-04-01T18:44:30;1.60;;;1.50;;
2191;SDS011;1102;49.718;11.902;2023-04-01T18:52:42;2.93;;;2.63;;
2191;SDS011;1102;49.718;11.902;2023-04-01T19:01:05;5.23;;;4.47;;
2191;SDS011;1102;49.718;11.902;2023-04-01T19:06:32;6.43;;;3.50;;
2191;SDS011;1102;49.718;11.902;2023-04-01T19:09:44;3.20;;;2.47;;
2191;SDS011;1102;49.718;11.902;2023-04-01T19:26:14;2.03;;;1.93;;
2191;SDS011;1102;49.718;11.902;2023-04-01T19:31:52;1.20;;;1.10;;
2191;SDS011;1102;49.718;11.902;2023-04-01T19:34:36;1.53;;;1.43;;
2191;SDS011;1102;49.718;11.902;2023-04-01T19:37:51;1.83;;;1.20;;
2191;SDS011;1102;49.718;11.902;2023-04-01T19:45:55;1.40;;;1.30;;
2191;SDS011;1102;49.718;11.902;2023-04-01T19:50:57;1.60;;;1.20;;
2191;SDS011;1102;49.718;11.902;2023-04-01T20:01:27;1.40;;;1.13;;
2191;SDS011;1102;49.718;11.902;2023-04-01T20:04:12;1.13;;;1.03;;
2191;SDS011;1102;49.718;11.902;2023-04-01T20:15:32;1.27;;;1.17;;
2191;SDS011;1102;49.718;11.902;2023-04-01T20:18:08;2.80;;;1.20;;
2191;SDS011;1102;49.718;11.902;2023-04-01T20:21:03;1.20;;;1.10;;
2191;SDS011;1102;49.718;11.902;2023-04-01T20:23:50;2.17;;;1.37;;
2191;SDS011;1102;49.718;11.902;2023-04-01T20:26:26;2.23;;;1.47;;
2191;SDS011;1102;49.718;11.902;2023-04-01T20:46:19;2.70;;;1.10;;
2191;SDS011;1102;49.718;11.902;2023-04-01T20:51:39;1.13;;;1.03;;
2191;SDS011;1102;49.718;11.902;2023-04-01T20:54:24;7.80;;;2.80;;
2191;SDS011;1102;49.718;11.902;2023-04-01T21:06:07;1.67;;;1.37;;
2191;SDS011;1102;49.718;11.902;2023-04-01T21:17:48;2.10;;;1.90;;
2191;SDS011;1102;49.718;11.902;2023-04-01T21:34:40;2.17;;;1.97;;
2191;SDS011;1102;49.718;11.902;2023-04-01T21:50:39;1.60;;;1.43;;
2191;SDS011;1102;49.718;11.902;2023-04-01T21:57:02;1.70;;;1.60;;
2191;SDS011;1102;49.718;11.902;2023-04-01T22:02:25;2.00;;;1.50;;
2191;SDS011;1102;49.718;11.902;2023-04-01T22:10:54;1.53;;;1.43;;
2191;SDS011;1102;49.718;11.902;2023-04-01T22:13:32;1.70;;;1.60;;
2191;SDS011;1102;49.718;11.902;2023-04-01T22:16:12;1.57;;;1.47;;
2191;SDS011;1102;49.718;11.902;2023-04-01T22:19:00;1.93;;;1.40;;
2191;SDS011;1102;49.718;11.902;2023-04-01T22:21:36;1.57;;;1.47;;
2191;SDS011;1102;49.718;11.902;2023-04-01T22:24:10;3.63;;;1.30;;
2191;SDS011;1102;49.718;11.902;2023-04-01T22:26:58;3.10;;;1.10;;
2191;SDS011;1102;49.718;11.902;2023-04-01T22:29:36;1.30;;;1.20;;
2191;SDS011;1102;49.718;11.902;2023-04-01T22:32:18;3.83;;;2.33;;
2191;SDS011;1102;49.718;11.902;2023-04-01T22:43:12;2.40;;;2.20;;
2191;SDS011;1102;49.718;11.902;2023-04-01T22:48:42;1.53;;;1.37;;
2191;SDS011;1102;49.718;11.902;2023-04-01T22:56:36;3.57;;;2.00;;
2191;SDS011;1102;49.718;11.902;2023-04-01T22:59:17;1.37;;;1.27;;
2191;SDS011;1102;49.718;11.902;2023-04-01T23:01:59;1.83;;;1.53;;
2191;SDS011;1102;49.718;11.902;2023-04-01T23:04:37;1.87;;;1.70;;
2191;SDS011;1102;49.718;11.902;2023-04-01T23:10:15;1.57;;;1.47;;
2191;SDS011;1102;49.718;11.902;2023-04-01T23:12:44;2.90;;;1.60;;
2191;SDS011;1102;49.718;11.902;2023-04-01T23:15:13;2.20;;;1.33;;
2191;SDS011;1102;49.718;11.902;2023-04-01T23:17:47;1.30;;;1.20;;
2191;SDS011;1102;49.718;11.902;2023-04-01T23:29:03;1.67;;;1.50;;
2191;SDS011;1102;49.718;11.902;2023-04-01T23:31:33;2.40;;;1.40;;
2191;SDS011;1102;49.718;11.902;2023-04-01T23:36:50;1.33;;;1.23;;
2191;SDS011;1102;49.718;11.902;2023-04-01T23:39:30;1.83;;;1.73;;
2191;SDS011;1102;49.718;11.902;2023-04-01T23:42:01;1.53;;;1.43;;
2191;SDS011;1102;49.718;11.902;2023-04-01T23:44:56;1.90;;;1.53;;
2191;SDS011;1102;49.718;11.902;2023-04-01T23:47:26;1.53;;;1.43;;
2191;SDS011;1102;49.718;11.902;2023-04-01T23:49:59;3.43;;;1.70;;
2191;SDS011;1102;49.718;11.902;2023-04-01T23:52:39;2.00;;;1.10;;
2191;SDS011;1102;49.718;11.902;2023-04-01T23:55:25;1.73;;;1.40;;
